sensor_id;sensor_type;location;lat;lon;timestamp;temperature;humidity
64817;DHT22;69411;45.656;11.740;2023-05-07T00:00:42;16.40;70.60
64817;DHT22;69411;45.656;11.740;2023-05-07T00:03:08;16.40;70.90
64817;DHT22;69411;45.656;11.740;2023-05-07T00:05:34;16.40;71.00
64817;DHT22;69411;45.656;11.740;2023-05-07T00:08:00;16.40;70.80
64817;DHT22;69411;45.656;11.740;2023-05-07T00:10:26;16.40;70.90
64817;DHT22;69411;45.656;11.740;2023-05-07T00:12:52;16.40;70.80
64817;DHT22;69411;45.656;11.740;2023-05-07T00:15:18;16.40;70.80
64817;DHT22;69411;45.656;11.740;2023-05-07T00:17:44;16.40;70.90
64817;DHT22;69411;45.656;11.740;2023-05-07T00:20:10;16.40;71.00
64817;DHT22;69411;45.656;11.740;2023-05-07T00:22:36;16.40;70.90
64817;DHT22;69411;45.656;11.740;2023-05-07T00:25:02;16.40;71.00
64817;DHT22;69411;45.656;11.740;2023-05-07T00:27:28;16.40;71.10
64817;DHT22;69411;45.656;11.740;2023-05-07T00:29:54;16.40;71.10
64817;DHT22;69411;45.656;11.740;2023-05-07T00:32:20;16.30;71.10
64817;DHT22;69411;45.656;11.740;2023-05-07T00:34:46;16.30;71.20
64817;DHT22;69411;45.656;11.740;2023-05-07T00:37:12;16.40;71.30
64817;DHT22;69411;45.656;11.740;2023-05-07T00:39:38;16.40;71.30
64817;DHT22;69411;45.656;11.740;2023-05-07T00:42:04;16.40;71.30
64817;DHT22;69411;45.656;11.740;2023-05-07T00:44:30;16.40;71.40
64817;DHT22;69411;45.656;11.740;2023-05-07T00:46:57;16.40;71.40
64817;DHT22;69411;45.656;11.740;2023-05-07T00:49:31;16.40;71.60
64817;DHT22;69411;45.656;11.740;2023-05-07T00:52:01;16.40;71.60
64817;DHT22;69411;45.656;11.740;2023-05-07T00:54:27;16.40;71.60
64817;DHT22;69411;45.656;11.740;2023-05-07T00:56:54;16.30;71.60
64817;DHT22;69411;45.656;11.740;2023-05-07T00:59:20;16.40;71.60
64817;DHT22;69411;45.656;11.740;2023-05-07T01:01:46;16.40;71.70
64817;DHT22;69411;45.656;11.740;2023-05-07T01:04:13;16.40;71.70
64817;DHT22;69411;45.656;11.740;2023-05-07T01:06:39;16.30;71.70
64817;DHT22;69411;45.656;11.740;2023-05-07T01:09:05;16.30;71.80
64817;DHT22;69411;45.656;11.740;2023-05-07T01:11:31;16.40;71.80
64817;DHT22;69411;45.656;11.740;2023-05-07T01:13:59;16.40;71.80
64817;DHT22;69411;45.656;11.740;2023-05-07T01:16:25;16.30;71.80
64817;DHT22;69411;45.656;11.740;2023-05-07T01:18:51;16.30;71.80
64817;DHT22;69411;45.656;11.740;2023-05-07T01:21:18;16.40;71.80
64817;DHT22;69411;45.656;11.740;2023-05-07T01:23:44;16.30;71.80
64817;DHT22;69411;45.656;11.740;2023-05-07T01:26:11;16.30;71.80
64817;DHT22;69411;45.656;11.740;2023-05-07T01:28:37;16.30;71.80
64817;DHT22;69411;45.656;11.740;2023-05-07T01:31:04;16.30;71.80
64817;DHT22;69411;45.656;11.740;2023-05-07T01:33:34;16.30;71.90
64817;DHT22;69411;45.656;11.740;2023-05-07T01:36:01;16.30;71.90
64817;DHT22;69411;45.656;11.740;2023-05-07T01:38:29;16.20;72.00
64817;DHT22;69411;45.656;11.740;2023-05-07T01:40:56;16.20;71.90
64817;DHT22;69411;45.656;11.740;2023-05-07T01:43:22;16.10;72.00
64817;DHT22;69411;45.656;11.740;2023-05-07T01:45:48;16.10;72.20
64817;DHT22;69411;45.656;11.740;2023-05-07T01:48:15;16.10;72.30
64817;DHT22;69411;45.656;11.740;2023-05-07T01:50:42;16.10;72.30
64817;DHT22;69411;45.656;11.740;2023-05-07T01:53:09;16.00;72.40
64817;DHT22;69411;45.656;11.740;2023-05-07T01:55:35;16.00;72.30
64817;DHT22;69411;45.656;11.740;2023-05-07T01:58:03;16.00;72.30
64817;DHT22;69411;45.656;11.740;2023-05-07T02:00:29;16.00;72.30
64817;DHT22;69411;45.656;11.740;2023-05-07T02:02:55;16.00;72.40
64817;DHT22;69411;45.656;11.740;2023-05-07T02:05:21;15.90;72.60
64817;DHT22;69411;45.656;11.740;2023-05-07T02:07:47;15.90;72.60
64817;DHT22;69411;45.656;11.740;2023-05-07T02:10:12;15.90;72.60
64817;DHT22;69411;45.656;11.740;2023-05-07T02:12:38;15.80;72.80
64817;DHT22;69411;45.656;11.740;2023-05-07T02:15:05;15.80;72.70
64817;DHT22;69411;45.656;11.740;2023-05-07T02:17:31;15.90;72.90
64817;DHT22;69411;45.656;11.740;2023-05-07T02:19:58;15.80;73.00
64817;DHT22;69411;45.656;11.740;2023-05-07T02:22:25;15.80;72.90
64817;DHT22;69411;45.656;11.740;2023-05-07T02:24:51;15.70;73.00
64817;DHT22;69411;45.656;11.740;2023-05-07T02:27:17;15.60;73.30
64817;DHT22;69411;45.656;11.740;2023-05-07T02:29:43;15.60;73.80
64817;DHT22;69411;45.656;11.740;2023-05-07T02:32:08;15.60;73.60
64817;DHT22;69411;45.656;11.740;2023-05-07T02:34:34;15.50;74.00
64817;DHT22;69411;45.656;11.740;2023-05-07T02:37:00;15.50;74.00
64817;DHT22;69411;45.656;11.740;2023-05-07T02:39:27;15.50;73.90
64817;DHT22;69411;45.656;11.740;2023-05-07T02:41:53;15.50;74.00
64817;DHT22;69411;45.656;11.740;2023-05-07T02:44:19;15.50;73.80
64817;DHT22;69411;45.656;11.740;2023-05-07T02:46:45;15.60;73.70
64817;DHT22;69411;45.656;11.740;2023-05-07T02:49:11;15.60;73.50
64817;DHT22;69411;45.656;11.740;2023-05-07T02:51:36;15.60;73.40
64817;DHT22;69411;45.656;11.740;2023-05-07T02:54:02;15.60;73.50
64817;DHT22;69411;45.656;11.740;2023-05-07T02:56:28;15.70;73.40
64817;DHT22;69411;45.656;11.740;2023-05-07T02:58:54;15.70;73.30
64817;DHT22;69411;45.656;11.740;2023-05-07T03:01:20;15.70;73.30
64817;DHT22;69411;45.656;11.740;2023-05-07T03:03:46;15.70;73.30
64817;DHT22;69411;45.656;11.740;2023-05-07T03:06:12;15.70;73.30
64817;DHT22;69411;45.656;11.740;2023-05-07T03:08:38;15.70;73.30
64817;DHT22;69411;45.656;11.740;2023-05-07T03:11:04;15.70;73.30
64817;DHT22;69411;45.656;11.740;2023-05-07T03:13:30;15.70;73.30
64817;DHT22;69411;45.656;11.740;2023-05-07T03:15:56;15.70;73.30
64817;DHT22;69411;45.656;11.740;2023-05-07T03:18:22;15.60;73.30
64817;DHT22;69411;45.656;11.740;2023-05-07T03:20:48;15.60;73.30
64817;DHT22;69411;45.656;11.740;2023-05-07T03:23:14;15.60;73.30
64817;DHT22;69411;45.656;11.740;2023-05-07T03:25:40;15.60;73.40
64817;DHT22;69411;45.656;11.740;2023-05-07T03:28:06;15.50;73.50
64817;DHT22;69411;45.656;11.740;2023-05-07T03:30:32;15.50;73.50
64817;DHT22;69411;45.656;11.740;2023-05-07T03:32:58;15.40;73.60
64817;DHT22;69411;45.656;11.740;2023-05-07T03:35:24;15.40;73.60
64817;DHT22;69411;45.656;11.740;2023-05-07T03:37:50;15.40;73.70
64817;DHT22;69411;45.656;11.740;2023-05-07T03:40:16;15.40;73.70
64817;DHT22;69411;45.656;11.740;2023-05-07T03:42:42;15.40;73.80
64817;DHT22;69411;45.656;11.740;2023-05-07T03:45:08;15.40;73.80
64817;DHT22;69411;45.656;11.740;2023-05-07T03:47:34;15.30;73.80
64817;DHT22;69411;45.656;11.740;2023-05-07T03:50:00;15.30;73.80
64817;DHT22;69411;45.656;11.740;2023-05-07T03:52:27;15.30;74.00
64817;DHT22;69411;45.656;11.740;2023-05-07T03:54:53;15.30;74.30
64817;DHT22;69411;45.656;11.740;2023-05-07T03:57:20;15.20;74.10
64817;DHT22;69411;45.656;11.740;2023-05-07T03:59:45;15.20;74.10
64817;DHT22;69411;45.656;11.740;2023-05-07T04:02:11;15.20;74.10
64817;DHT22;69411;45.656;11.740;2023-05-07T04:04:37;15.30;74.20
64817;DHT22;69411;45.656;11.740;2023-05-07T04:07:03;15.20;74.10
64817;DHT22;69411;45.656;11.740;2023-05-07T04:09:29;15.20;74.10
64817;DHT22;69411;45.656;11.740;2023-05-07T04:11:56;15.30;74.10
64817;DHT22;69411;45.656;11.740;2023-05-07T04:14:22;15.30;74.10
64817;DHT22;69411;45.656;11.740;2023-05-07T04:16:48;15.30;74.10
64817;DHT22;69411;45.656;11.740;2023-05-07T04:19:14;15.30;74.00
64817;DHT22;69411;45.656;11.740;2023-05-07T04:21:40;15.40;74.00
64817;DHT22;69411;45.656;11.740;2023-05-07T04:24:06;15.40;73.90
64817;DHT22;69411;45.656;11.740;2023-05-07T04:26:32;15.40;73.90
64817;DHT22;69411;45.656;11.740;2023-05-07T04:28:58;15.50;73.90
64817;DHT22;69411;45.656;11.740;2023-05-07T04:31:24;15.60;73.80
64817;DHT22;69411;45.656;11.740;2023-05-07T04:33:50;15.60;73.60
64817;DHT22;69411;45.656;11.740;2023-05-07T04:36:17;15.80;73.70
64817;DHT22;69411;45.656;11.740;2023-05-07T04:38:43;15.90;73.60
64817;DHT22;69411;45.656;11.740;2023-05-07T04:41:09;15.90;73.40
64817;DHT22;69411;45.656;11.740;2023-05-07T04:43:35;16.00;73.30
64817;DHT22;69411;45.656;11.740;2023-05-07T04:46:01;16.20;73.10
64817;DHT22;69411;45.656;11.740;2023-05-07T04:48:27;16.30;73.00
64817;DHT22;69411;45.656;11.740;2023-05-07T04:50:54;16.50;72.70
64817;DHT22;69411;45.656;11.740;2023-05-07T04:53:20;16.60;72.50
64817;DHT22;69411;45.656;11.740;2023-05-07T04:55:47;16.80;72.50
64817;DHT22;69411;45.656;11.740;2023-05-07T04:58:13;16.90;72.40
64817;DHT22;69411;45.656;11.740;2023-05-07T05:00:39;17.20;72.20
64817;DHT22;69411;45.656;11.740;2023-05-07T05:03:07;17.50;71.60
64817;DHT22;69411;45.656;11.740;2023-05-07T05:05:33;17.80;71.00
64817;DHT22;69411;45.656;11.740;2023-05-07T05:07:59;18.10;70.80
64817;DHT22;69411;45.656;11.740;2023-05-07T05:10:25;18.40;70.30
64817;DHT22;69411;45.656;11.740;2023-05-07T05:12:51;18.60;69.70
64817;DHT22;69411;45.656;11.740;2023-05-07T05:15:17;18.90;69.30
64817;DHT22;69411;45.656;11.740;2023-05-07T05:17:43;19.20;68.70
64817;DHT22;69411;45.656;11.740;2023-05-07T05:20:10;19.50;68.10
64817;DHT22;69411;45.656;11.740;2023-05-07T05:22:38;19.60;67.60
64817;DHT22;69411;45.656;11.740;2023-05-07T05:25:05;19.70;67.20
64817;DHT22;69411;45.656;11.740;2023-05-07T05:27:31;19.70;66.90
64817;DHT22;69411;45.656;11.740;2023-05-07T05:29:56;19.70;66.80
64817;DHT22;69411;45.656;11.740;2023-05-07T05:32:23;19.60;66.80
64817;DHT22;69411;45.656;11.740;2023-05-07T05:34:49;19.70;66.70
64817;DHT22;69411;45.656;11.740;2023-05-07T05:37:15;19.80;66.70
64817;DHT22;69411;45.656;11.740;2023-05-07T05:39:41;19.90;66.60
64817;DHT22;69411;45.656;11.740;2023-05-07T05:42:08;20.00;66.20
64817;DHT22;69411;45.656;11.740;2023-05-07T05:44:33;20.40;66.00
64817;DHT22;69411;45.656;11.740;2023-05-07T05:46:59;20.90;65.70
64817;DHT22;69411;45.656;11.740;2023-05-07T05:49:25;21.50;64.80
64817;DHT22;69411;45.656;11.740;2023-05-07T05:51:51;21.90;63.50
64817;DHT22;69411;45.656;11.740;2023-05-07T05:54:18;22.10;62.90
64817;DHT22;69411;45.656;11.740;2023-05-07T05:56:44;22.60;62.40
64817;DHT22;69411;45.656;11.740;2023-05-07T05:59:10;23.30;61.80
64817;DHT22;69411;45.656;11.740;2023-05-07T06:01:38;24.00;60.80
64817;DHT22;69411;45.656;11.740;2023-05-07T06:04:04;24.90;59.40
64817;DHT22;69411;45.656;11.740;2023-05-07T06:06:30;25.70;57.80
64817;DHT22;69411;45.656;11.740;2023-05-07T06:08:57;26.50;56.10
64817;DHT22;69411;45.656;11.740;2023-05-07T06:11:23;27.40;54.90
64817;DHT22;69411;45.656;11.740;2023-05-07T06:13:49;28.30;53.70
64817;DHT22;69411;45.656;11.740;2023-05-07T06:16:15;29.20;51.90
64817;DHT22;69411;45.656;11.740;2023-05-07T06:18:41;29.90;50.20
64817;DHT22;69411;45.656;11.740;2023-05-07T06:21:07;30.60;49.00
64817;DHT22;69411;45.656;11.740;2023-05-07T06:23:33;31.10;48.00
64817;DHT22;69411;45.656;11.740;2023-05-07T06:25:59;31.50;47.10
64817;DHT22;69411;45.656;11.740;2023-05-07T06:28:25;31.90;46.30
64817;DHT22;69411;45.656;11.740;2023-05-07T06:30:51;32.00;45.60
64817;DHT22;69411;45.656;11.740;2023-05-07T06:33:17;32.20;45.30
64817;DHT22;69411;45.656;11.740;2023-05-07T06:35:43;32.50;44.60
64817;DHT22;69411;45.656;11.740;2023-05-07T06:38:08;32.90;44.10
64817;DHT22;69411;45.656;11.740;2023-05-07T06:40:34;33.10;43.40
64817;DHT22;69411;45.656;11.740;2023-05-07T06:43:01;33.40;42.60
64817;DHT22;69411;45.656;11.740;2023-05-07T06:45:27;33.50;42.10
64817;DHT22;69411;45.656;11.740;2023-05-07T06:47:53;33.60;41.60
64817;DHT22;69411;45.656;11.740;2023-05-07T06:50:19;33.80;40.90
64817;DHT22;69411;45.656;11.740;2023-05-07T06:52:45;34.00;40.30
64817;DHT22;69411;45.656;11.740;2023-05-07T06:55:11;33.90;39.80
64817;DHT22;69411;45.656;11.740;2023-05-07T06:57:37;33.60;40.00
64817;DHT22;69411;45.656;11.740;2023-05-07T07:00:04;33.30;40.30
64817;DHT22;69411;45.656;11.740;2023-05-07T07:02:32;32.90;40.60
64817;DHT22;69411;45.656;11.740;2023-05-07T07:04:58;32.50;41.30
64817;DHT22;69411;45.656;11.740;2023-05-07T07:07:24;32.00;41.90
64817;DHT22;69411;45.656;11.740;2023-05-07T07:09:50;31.70;42.40
64817;DHT22;69411;45.656;11.740;2023-05-07T07:12:17;31.40;42.90
64817;DHT22;69411;45.656;11.740;2023-05-07T07:14:43;31.10;43.40
64817;DHT22;69411;45.656;11.740;2023-05-07T07:17:09;30.90;43.60
64817;DHT22;69411;45.656;11.740;2023-05-07T07:19:35;30.80;43.80
64817;DHT22;69411;45.656;11.740;2023-05-07T07:22:01;30.60;44.00
64817;DHT22;69411;45.656;11.740;2023-05-07T07:24:27;30.50;44.20
64817;DHT22;69411;45.656;11.740;2023-05-07T07:26:53;30.30;44.40
64817;DHT22;69411;45.656;11.740;2023-05-07T07:29:20;30.20;44.50
64817;DHT22;69411;45.656;11.740;2023-05-07T07:31:48;30.20;44.70
64817;DHT22;69411;45.656;11.740;2023-05-07T07:34:15;30.10;44.90
64817;DHT22;69411;45.656;11.740;2023-05-07T07:36:41;30.20;45.10
64817;DHT22;69411;45.656;11.740;2023-05-07T07:39:07;30.30;45.10
64817;DHT22;69411;45.656;11.740;2023-05-07T07:41:34;30.40;44.90
64817;DHT22;69411;45.656;11.740;2023-05-07T07:43:59;30.40;44.70
64817;DHT22;69411;45.656;11.740;2023-05-07T07:46:25;30.40;44.60
64817;DHT22;69411;45.656;11.740;2023-05-07T07:48:52;30.40;44.50
64817;DHT22;69411;45.656;11.740;2023-05-07T07:51:18;30.40;44.70
64817;DHT22;69411;45.656;11.740;2023-05-07T07:53:43;30.30;44.80
64817;DHT22;69411;45.656;11.740;2023-05-07T07:56:09;30.20;44.80
64817;DHT22;69411;45.656;11.740;2023-05-07T07:58:35;30.10;45.10
64817;DHT22;69411;45.656;11.740;2023-05-07T08:01:03;30.00;44.80
64817;DHT22;69411;45.656;11.740;2023-05-07T08:03:29;29.80;45.10
64817;DHT22;69411;45.656;11.740;2023-05-07T08:05:57;29.60;45.30
64817;DHT22;69411;45.656;11.740;2023-05-07T08:08:23;29.40;45.50
64817;DHT22;69411;45.656;11.740;2023-05-07T08:10:49;29.10;45.90
64817;DHT22;69411;45.656;11.740;2023-05-07T08:13:17;28.80;46.20
64817;DHT22;69411;45.656;11.740;2023-05-07T08:15:43;28.60;46.50
64817;DHT22;69411;45.656;11.740;2023-05-07T08:18:08;28.40;46.90
64817;DHT22;69411;45.656;11.740;2023-05-07T08:20:36;28.20;47.40
64817;DHT22;69411;45.656;11.740;2023-05-07T08:23:05;28.00;47.40
64817;DHT22;69411;45.656;11.740;2023-05-07T08:25:35;27.80;47.90
64817;DHT22;69411;45.656;11.740;2023-05-07T08:28:01;27.60;48.30
64817;DHT22;69411;45.656;11.740;2023-05-07T08:30:28;27.50;48.50
64817;DHT22;69411;45.656;11.740;2023-05-07T08:32:54;27.40;48.60
64817;DHT22;69411;45.656;11.740;2023-05-07T08:35:20;27.30;48.90
64817;DHT22;69411;45.656;11.740;2023-05-07T08:37:46;27.10;49.10
64817;DHT22;69411;45.656;11.740;2023-05-07T08:40:12;27.10;49.30
64817;DHT22;69411;45.656;11.740;2023-05-07T08:42:39;27.00;49.40
64817;DHT22;69411;45.656;11.740;2023-05-07T08:45:10;27.00;49.10
64817;DHT22;69411;45.656;11.740;2023-05-07T08:47:43;26.90;49.10
64817;DHT22;69411;45.656;11.740;2023-05-07T08:50:12;26.90;49.00
64817;DHT22;69411;45.656;11.740;2023-05-07T08:52:41;26.80;49.30
64817;DHT22;69411;45.656;11.740;2023-05-07T08:55:08;26.70;49.50
64817;DHT22;69411;45.656;11.740;2023-05-07T08:57:34;26.70;49.70
64817;DHT22;69411;45.656;11.740;2023-05-07T09:00:02;26.70;49.80
64817;DHT22;69411;45.656;11.740;2023-05-07T09:02:28;26.70;50.10
64817;DHT22;69411;45.656;11.740;2023-05-07T09:04:54;26.70;50.20
64817;DHT22;69411;45.656;11.740;2023-05-07T09:07:21;26.60;50.10
64817;DHT22;69411;45.656;11.740;2023-05-07T09:09:48;26.60;50.10
64817;DHT22;69411;45.656;11.740;2023-05-07T09:12:13;26.60;50.10
64817;DHT22;69411;45.656;11.740;2023-05-07T09:14:39;26.60;50.10
64817;DHT22;69411;45.656;11.740;2023-05-07T09:17:06;26.70;49.70
64817;DHT22;69411;45.656;11.740;2023-05-07T09:19:31;26.60;48.40
64817;DHT22;69411;45.656;11.740;2023-05-07T09:21:58;26.60;48.00
64817;DHT22;69411;45.656;11.740;2023-05-07T09:24:25;26.70;47.00
64817;DHT22;69411;45.656;11.740;2023-05-07T09:26:51;26.60;47.00
64817;DHT22;69411;45.656;11.740;2023-05-07T09:29:17;26.70;46.40
64817;DHT22;69411;45.656;11.740;2023-05-07T09:31:43;26.60;46.00
64817;DHT22;69411;45.656;11.740;2023-05-07T09:34:09;26.60;45.70
64817;DHT22;69411;45.656;11.740;2023-05-07T09:36:35;26.60;45.70
64817;DHT22;69411;45.656;11.740;2023-05-07T09:39:01;26.60;45.70
64817;DHT22;69411;45.656;11.740;2023-05-07T09:41:30;26.70;45.60
64817;DHT22;69411;45.656;11.740;2023-05-07T09:43:58;26.90;45.20
64817;DHT22;69411;45.656;11.740;2023-05-07T09:46:34;26.90;45.20
64817;DHT22;69411;45.656;11.740;2023-05-07T09:49:02;27.10;44.80
64817;DHT22;69411;45.656;11.740;2023-05-07T09:51:39;27.20;44.90
64817;DHT22;69411;45.656;11.740;2023-05-07T09:54:07;27.40;44.60
64817;DHT22;69411;45.656;11.740;2023-05-07T09:56:33;27.50;44.50
64817;DHT22;69411;45.656;11.740;2023-05-07T09:59:00;27.80;44.40
64817;DHT22;69411;45.656;11.740;2023-05-07T10:01:27;28.00;44.10
64817;DHT22;69411;45.656;11.740;2023-05-07T10:03:53;28.20;43.70
64817;DHT22;69411;45.656;11.740;2023-05-07T10:06:20;28.30;43.50
64817;DHT22;69411;45.656;11.740;2023-05-07T10:08:48;28.40;43.40
64817;DHT22;69411;45.656;11.740;2023-05-07T10:11:15;28.40;42.70
64817;DHT22;69411;45.656;11.740;2023-05-07T10:13:41;28.40;42.00
64817;DHT22;69411;45.656;11.740;2023-05-07T10:16:08;28.20;42.20
64817;DHT22;69411;45.656;11.740;2023-05-07T10:18:34;28.10;42.50
64817;DHT22;69411;45.656;11.740;2023-05-07T10:21:18;28.20;42.70
64817;DHT22;69411;45.656;11.740;2023-05-07T10:23:47;28.30;42.30
64817;DHT22;69411;45.656;11.740;2023-05-07T10:26:14;28.40;42.90
64817;DHT22;69411;45.656;11.740;2023-05-07T10:28:44;28.40;43.00
64817;DHT22;69411;45.656;11.740;2023-05-07T10:33:56;28.50;42.50
64817;DHT22;69411;45.656;11.740;2023-05-07T10:36:24;28.50;42.50
64817;DHT22;69411;45.656;11.740;2023-05-07T10:38:50;28.60;42.60
64817;DHT22;69411;45.656;11.740;2023-05-07T10:41:17;28.70;42.70
64817;DHT22;69411;45.656;11.740;2023-05-07T10:43:45;28.70;42.70
64817;DHT22;69411;45.656;11.740;2023-05-07T10:46:22;28.70;42.60
64817;DHT22;69411;45.656;11.740;2023-05-07T10:51:30;28.70;42.80
64817;DHT22;69411;45.656;11.740;2023-05-07T10:56:39;28.70;43.10
64817;DHT22;69411;45.656;11.740;2023-05-07T11:01:57;28.60;43.30
64817;DHT22;69411;45.656;11.740;2023-05-07T11:04:24;28.60;43.10
64817;DHT22;69411;45.656;11.740;2023-05-07T11:12:18;28.40;44.00
64817;DHT22;69411;45.656;11.740;2023-05-07T11:15:10;28.40;44.40
64817;DHT22;69411;45.656;11.740;2023-05-07T11:17:57;28.40;44.60
64817;DHT22;69411;45.656;11.740;2023-05-07T11:20:48;28.40;44.60
64817;DHT22;69411;45.656;11.740;2023-05-07T11:26:09;28.50;44.80
64817;DHT22;69411;45.656;11.740;2023-05-07T11:28:38;28.50;44.60
64817;DHT22;69411;45.656;11.740;2023-05-07T11:31:05;28.50;44.90
64817;DHT22;69411;45.656;11.740;2023-05-07T11:33:31;28.50;45.20
64817;DHT22;69411;45.656;11.740;2023-05-07T11:35:58;28.50;45.50
64817;DHT22;69411;45.656;11.740;2023-05-07T11:38:25;28.60;45.60
64817;DHT22;69411;45.656;11.740;2023-05-07T11:40:52;28.70;45.60
64817;DHT22;69411;45.656;11.740;2023-05-07T11:43:18;28.70;45.50
64817;DHT22;69411;45.656;11.740;2023-05-07T11:45:48;28.80;45.60
64817;DHT22;69411;45.656;11.740;2023-05-07T11:48:15;28.90;45.40
64817;DHT22;69411;45.656;11.740;2023-05-07T11:50:54;28.90;45.10
64817;DHT22;69411;45.656;11.740;2023-05-07T11:53:26;28.90;44.70
64817;DHT22;69411;45.656;11.740;2023-05-07T11:55:57;28.90;44.90
64817;DHT22;69411;45.656;11.740;2023-05-07T11:58:24;28.90;44.80
64817;DHT22;69411;45.656;11.740;2023-05-07T12:00:52;28.90;44.90
64817;DHT22;69411;45.656;11.740;2023-05-07T12:03:18;29.00;44.80
64817;DHT22;69411;45.656;11.740;2023-05-07T12:05:45;29.00;44.60
64817;DHT22;69411;45.656;11.740;2023-05-07T12:08:15;29.00;44.60
64817;DHT22;69411;45.656;11.740;2023-05-07T12:10:42;29.00;44.50
64817;DHT22;69411;45.656;11.740;2023-05-07T12:13:35;29.00;44.40
64817;DHT22;69411;45.656;11.740;2023-05-07T12:16:01;29.00;44.30
64817;DHT22;69411;45.656;11.740;2023-05-07T12:18:29;29.00;44.30
64817;DHT22;69411;45.656;11.740;2023-05-07T12:20:55;29.10;44.20
64817;DHT22;69411;45.656;11.740;2023-05-07T12:23:22;29.00;44.10
64817;DHT22;69411;45.656;11.740;2023-05-07T12:25:48;29.10;44.00
64817;DHT22;69411;45.656;11.740;2023-05-07T12:28:15;29.10;43.80
64817;DHT22;69411;45.656;11.740;2023-05-07T12:30:46;29.10;44.00
64817;DHT22;69411;45.656;11.740;2023-05-07T12:33:16;29.10;44.10
64817;DHT22;69411;45.656;11.740;2023-05-07T12:35:42;29.20;44.10
64817;DHT22;69411;45.656;11.740;2023-05-07T12:38:10;29.20;44.10
64817;DHT22;69411;45.656;11.740;2023-05-07T12:40:41;29.30;44.10
64817;DHT22;69411;45.656;11.740;2023-05-07T12:43:14;29.30;43.90
64817;DHT22;69411;45.656;11.740;2023-05-07T12:45:42;29.30;44.10
64817;DHT22;69411;45.656;11.740;2023-05-07T12:48:10;29.30;44.10
64817;DHT22;69411;45.656;11.740;2023-05-07T12:50:36;29.40;44.10
64817;DHT22;69411;45.656;11.740;2023-05-07T12:53:04;29.40;44.40
64817;DHT22;69411;45.656;11.740;2023-05-07T12:55:48;29.40;44.30
64817;DHT22;69411;45.656;11.740;2023-05-07T13:00:50;29.40;44.10
64817;DHT22;69411;45.656;11.740;2023-05-07T13:03:23;29.40;44.20
64817;DHT22;69411;45.656;11.740;2023-05-07T13:05:50;29.40;44.40
64817;DHT22;69411;45.656;11.740;2023-05-07T13:10:55;29.40;44.70
64817;DHT22;69411;45.656;11.740;2023-05-07T13:13:21;29.40;44.80
64817;DHT22;69411;45.656;11.740;2023-05-07T13:15:47;29.40;44.60
64817;DHT22;69411;45.656;11.740;2023-05-07T13:18:13;29.40;44.50
64817;DHT22;69411;45.656;11.740;2023-05-07T13:20:39;29.20;44.80
64817;DHT22;69411;45.656;11.740;2023-05-07T13:23:06;29.20;44.80
64817;DHT22;69411;45.656;11.740;2023-05-07T13:25:32;29.10;44.80
64817;DHT22;69411;45.656;11.740;2023-05-07T13:27:58;29.10;44.80
64817;DHT22;69411;45.656;11.740;2023-05-07T13:30:24;29.20;44.80
64817;DHT22;69411;45.656;11.740;2023-05-07T13:32:50;29.20;44.70
64817;DHT22;69411;45.656;11.740;2023-05-07T13:35:17;29.20;44.70
64817;DHT22;69411;45.656;11.740;2023-05-07T13:37:43;29.20;44.60
64817;DHT22;69411;45.656;11.740;2023-05-07T13:40:09;29.30;44.60
64817;DHT22;69411;45.656;11.740;2023-05-07T13:42:35;29.30;44.50
64817;DHT22;69411;45.656;11.740;2023-05-07T13:45:01;29.20;44.50
64817;DHT22;69411;45.656;11.740;2023-05-07T13:47:30;29.10;44.40
64817;DHT22;69411;45.656;11.740;2023-05-07T13:49:56;29.10;44.50
64817;DHT22;69411;45.656;11.740;2023-05-07T13:52:22;29.00;44.70
64817;DHT22;69411;45.656;11.740;2023-05-07T13:54:48;29.00;44.60
64817;DHT22;69411;45.656;11.740;2023-05-07T13:57:14;29.10;44.50
64817;DHT22;69411;45.656;11.740;2023-05-07T13:59:40;29.00;44.30
64817;DHT22;69411;45.656;11.740;2023-05-07T14:02:06;28.90;44.60
64817;DHT22;69411;45.656;11.740;2023-05-07T14:04:32;28.70;44.80
64817;DHT22;69411;45.656;11.740;2023-05-07T14:06:58;28.70;44.90
64817;DHT22;69411;45.656;11.740;2023-05-07T14:09:24;28.60;45.00
64817;DHT22;69411;45.656;11.740;2023-05-07T14:11:50;28.50;45.20
64817;DHT22;69411;45.656;11.740;2023-05-07T14:14:17;28.40;45.50
64817;DHT22;69411;45.656;11.740;2023-05-07T14:16:44;28.40;45.70
64817;DHT22;69411;45.656;11.740;2023-05-07T14:19:11;28.40;45.70
64817;DHT22;69411;45.656;11.740;2023-05-07T14:21:37;28.40;45.70
64817;DHT22;69411;45.656;11.740;2023-05-07T14:24:05;28.50;45.60
64817;DHT22;69411;45.656;11.740;2023-05-07T14:26:32;28.50;45.60
64817;DHT22;69411;45.656;11.740;2023-05-07T14:28:58;28.50;45.40
64817;DHT22;69411;45.656;11.740;2023-05-07T14:31:24;28.50;45.40
64817;DHT22;69411;45.656;11.740;2023-05-07T14:33:50;28.40;45.40
64817;DHT22;69411;45.656;11.740;2023-05-07T14:36:18;28.40;45.50
64817;DHT22;69411;45.656;11.740;2023-05-07T14:38:46;28.40;45.70
64817;DHT22;69411;45.656;11.740;2023-05-07T14:41:12;28.40;45.60
64817;DHT22;69411;45.656;11.740;2023-05-07T14:43:38;28.40;45.70
64817;DHT22;69411;45.656;11.740;2023-05-07T14:46:04;28.40;46.00
64817;DHT22;69411;45.656;11.740;2023-05-07T14:48:30;28.40;46.00
64817;DHT22;69411;45.656;11.740;2023-05-07T14:50:56;28.40;46.00
64817;DHT22;69411;45.656;11.740;2023-05-07T14:53:22;28.30;45.90
64817;DHT22;69411;45.656;11.740;2023-05-07T14:55:48;28.30;46.00
64817;DHT22;69411;45.656;11.740;2023-05-07T14:58:14;28.30;46.00
64817;DHT22;69411;45.656;11.740;2023-05-07T15:00:40;28.20;46.10
64817;DHT22;69411;45.656;11.740;2023-05-07T15:03:08;28.20;46.30
64817;DHT22;69411;45.656;11.740;2023-05-07T15:05:35;28.20;46.20
64817;DHT22;69411;45.656;11.740;2023-05-07T15:08:01;28.10;46.30
64817;DHT22;69411;45.656;11.740;2023-05-07T15:10:27;28.10;46.40
64817;DHT22;69411;45.656;11.740;2023-05-07T15:12:53;28.10;46.40
64817;DHT22;69411;45.656;11.740;2023-05-07T15:15:19;28.20;46.50
64817;DHT22;69411;45.656;11.740;2023-05-07T15:17:45;28.20;46.50
64817;DHT22;69411;45.656;11.740;2023-05-07T15:20:11;28.10;46.60
64817;DHT22;69411;45.656;11.740;2023-05-07T15:22:37;28.00;46.40
64817;DHT22;69411;45.656;11.740;2023-05-07T15:25:03;27.90;46.60
64817;DHT22;69411;45.656;11.740;2023-05-07T15:27:30;27.80;46.80
64817;DHT22;69411;45.656;11.740;2023-05-07T15:29:56;27.80;46.70
64817;DHT22;69411;45.656;11.740;2023-05-07T15:32:22;27.70;46.60
64817;DHT22;69411;45.656;11.740;2023-05-07T15:34:49;27.60;46.70
64817;DHT22;69411;45.656;11.740;2023-05-07T15:37:15;27.50;46.70